Time;durP1;ratioP1;P1;durP2;ratioP2;P2;SDS_P1;SDS_P2;PMS_P1;PMS_P2;Temp;Humidity;BMP_temperature;BMP_pressure;BME280_temperature;BME280_humidity;BME280_pressure;Samples;Min_cycle;Max_cycle;Signal;HPM_P1;HPM_P2
2021/01/15 00:02:02;;;;;;;27.97;13.30;;;0.20;99.90;;;;;;5062245;28;20044;-73
2021/01/15 00:04:31;;;;;;;25.27;13.43;;;0.10;99.90;;;;;;5054874;28;20056;-73
2021/01/15 00:09:28;;;;;;;24.93;12.20;;;0.00;99.90;;;;;;5001534;28;20045;-72
2021/01/15 00:11:55;;;;;;;25.63;12.37;;;-0.10;99.90;;;;;;5004740;28;20050;-71
2021/01/15 00:14:21;;;;;;;25.60;12.00;;;-0.10;99.90;;;;;;5000862;28;20053;-71
2021/01/15 00:16:52;;;;;;;23.73;10.90;;;-0.10;99.90;;;;;;5005914;28;20526;-74
2021/01/15 00:19:19;;;;;;;23.77;12.10;;;-0.10;99.90;;;;;;5004571;28;20049;-71
2021/01/15 00:21:49;;;;;;;25.33;11.47;;;-0.10;99.90;;;;;;5002023;28;20050;-75
2021/01/15 00:24:17;;;;;;;23.07;12.37;;;-0.10;99.90;;;;;;5003562;28;20058;-71
2021/01/15 00:26:44;;;;;;;21.50;11.23;;;-0.30;99.90;;;;;;4995281;28;20046;-71
2021/01/15 00:29:12;;;;;;;22.83;12.30;;;-0.30;99.90;;;;;;5005739;28;20054;-71
2021/01/15 00:31:40;;;;;;;31.47;13.80;;;-0.40;99.90;;;;;;4992725;28;20049;-71
2021/01/15 00:34:08;;;;;;;24.47;13.00;;;-0.50;99.90;;;;;;5001179;28;20061;-71
2021/01/15 00:36:35;;;;;;;27.33;12.27;;;-0.50;99.90;;;;;;5005432;28;20500;-71
2021/01/15 00:39:03;;;;;;;24.27;12.67;;;-0.50;99.90;;;;;;5006444;28;20180;-71
2021/01/15 00:41:34;;;;;;;30.40;12.70;;;-0.60;99.90;;;;;;5006336;28;20100;-76
2021/01/15 00:44:00;;;;;;;29.03;12.60;;;-0.50;99.90;;;;;;5003456;28;20045;-73
2021/01/15 00:46:32;;;;;;;25.93;13.07;;;-0.60;99.90;;;;;;5011391;28;20095;-70
2021/01/15 00:49:00;;;;;;;30.63;13.50;;;-0.60;99.90;;;;;;5006035;28;20065;-70
2021/01/15 00:51:27;;;;;;;31.27;13.97;;;-0.60;99.90;;;;;;5006217;28;20045;-73
2021/01/15 00:53:53;;;;;;;27.43;12.23;;;-0.70;99.90;;;;;;5004537;28;20054;-71
2021/01/15 00:56:21;;;;;;;24.20;11.20;;;-0.80;99.90;;;;;;5006350;28;20054;-71
2021/01/15 00:58:48;;;;;;;27.20;11.17;;;-0.80;99.90;;;;;;5006612;28;20050;-75
2021/01/15 01:01:15;;;;;;;26.60;11.57;;;-0.90;99.90;;;;;;5005888;28;20061;-73
2021/01/15 01:03:42;;;;;;;21.90;10.23;;;-0.90;99.90;;;;;;5005415;28;20081;-73
2021/01/15 01:06:12;;;;;;;20.90;9.90;;;-0.90;99.90;;;;;;4987004;28;20054;-70
2021/01/15 01:08:39;;;;;;;25.23;10.43;;;-0.90;99.90;;;;;;5019594;28;20050;-70
2021/01/15 01:11:11;;;;;;;20.07;9.30;;;-0.90;99.90;;;;;;5025911;28;20061;-70
2021/01/15 01:13:38;;;;;;;22.83;9.43;;;-0.90;99.90;;;;;;5017942;28;20062;-70
2021/01/15 01:16:05;;;;;;;23.47;10.10;;;-1.00;99.90;;;;;;5005329;28;20149;-70
2021/01/15 01:18:33;;;;;;;24.60;10.33;;;-1.00;99.90;;;;;;5021999;28;20103;-70
2021/01/15 01:21:00;;;;;;;21.17;9.47;;;-1.00;99.90;;;;;;5011546;28;20046;-70
2021/01/15 01:23:26;;;;;;;19.77;9.37;;;-1.10;99.90;;;;;;5014434;28;20053;-70
2021/01/15 01:25:53;;;;;;;18.73;9.03;;;-1.10;99.90;;;;;;5015829;28;20535;-75
2021/01/15 01:28:20;;;;;;;22.07;9.13;;;-1.10;99.90;;;;;;5006190;28;20045;-74
2021/01/15 01:30:47;;;;;;;23.50;9.77;;;-1.20;99.90;;;;;;5005834;28;20492;-70
2021/01/15 01:33:14;;;;;;;23.90;9.50;;;-1.20;99.90;;;;;;5004797;28;20053;-70
2021/01/15 01:35:40;;;;;;;20.90;9.97;;;-1.20;99.90;;;;;;5005685;28;20049;-72
2021/01/15 01:38:07;;;;;;;19.33;9.43;;;-1.30;99.90;;;;;;5005373;28;20050;-70
2021/01/15 01:40:34;;;;;;;20.20;9.40;;;-1.30;99.90;;;;;;5005991;28;20550;-70
2021/01/15 01:43:00;;;;;;;25.57;10.73;;;-1.30;99.90;;;;;;5005067;28;20053;-76
2021/01/15 01:45:27;;;;;;;23.63;10.27;;;-1.30;99.90;;;;;;5012265;28;20054;-72
2021/01/15 01:47:56;;;;;;;19.90;10.03;;;-1.30;99.90;;;;;;5005854;28;20058;-71
2021/01/15 01:50:24;;;;;;;20.57;10.63;;;-1.30;99.90;;;;;;5005953;28;20894;-75
2021/01/15 01:52:51;;;;;;;20.23;10.10;;;-1.30;99.90;;;;;;5004096;28;20050;-70
2021/01/15 01:55:19;;;;;;;24.30;11.03;;;-1.40;99.90;;;;;;5004827;28;20050;-76
2021/01/15 01:57:46;;;;;;;23.63;11.10;;;-1.40;99.90;;;;;;5004888;28;20440;-75
2021/01/15 02:00:14;;;;;;;24.07;11.13;;;-1.40;99.90;;;;;;5007531;28;20123;-75
2021/01/15 02:02:41;;;;;;;22.83;10.60;;;-1.40;99.90;;;;;;5001942;28;20050;-70
2021/01/15 02:05:10;;;;;;;22.03;9.53;;;-1.40;99.90;;;;;;5005084;28;20057;-74
2021/01/15 02:07:36;;;;;;;25.03;11.13;;;-1.40;99.90;;;;;;5005972;28;20104;-74
2021/01/15 02:10:07;;;;;;;20.70;10.17;;;-1.40;99.90;;;;;;5006592;28;20050;-71
2021/01/15 02:12:44;;;;;;;22.17;10.50;;;-1.50;99.90;;;;;;4984611;28;20054;-71
2021/01/15 02:15:17;;;;;;;24.33;11.83;;;-1.40;99.90;;;;;;4985933;28;20061;-70
2021/01/15 02:17:51;;;;;;;21.67;10.37;;;-1.40;99.90;;;;;;4985791;28;20062;-70
2021/01/15 02:20:30;;;;;;;20.50;10.67;;;-1.40;99.90;;;;;;4985963;28;20046;-74
2021/01/15 02:23:08;;;;;;;22.30;11.03;;;-1.50;99.90;;;;;;4982680;28;20046;-70
2021/01/15 02:26:15;;;;;;;22.73;10.70;;;-1.50;99.90;;;;;;5003643;28;20041;-70
2021/01/15 02:29:14;;;;;;;21.60;9.80;;;-1.60;99.90;;;;;;5006808;28;20049;-75
2021/01/15 02:32:27;;;;;;;22.00;10.60;;;-1.70;99.90;;;;;;5010777;28;20463;-70
2021/01/15 02:35:14;;;;;;;25.03;10.53;;;-1.70;99.90;;;;;;4999942;28;20053;-71
2021/01/15 02:38:09;;;;;;;29.38;11.57;;;-1.80;99.90;;;;;;5003612;28;20061;-71
2021/01/15 02:40:41;;;;;;;19.33;9.97;;;-1.80;99.90;;;;;;5021926;28;20072;-70
2021/01/15 02:43:08;;;;;;;23.77;9.87;;;-1.70;99.90;;;;;;5007230;28;20100;-75
2021/01/15 02:45:35;;;;;;;24.27;10.27;;;-1.80;99.90;;;;;;5004811;28;20054;-70
2021/01/15 02:48:05;;;;;;;23.43;10.37;;;-1.80;99.90;;;;;;4999929;28;20061;-71
2021/01/15 02:50:31;;;;;;;24.03;11.60;;;-1.90;99.90;;;;;;5004958;28;20054;-70
2021/01/15 02:52:59;;;;;;;26.70;11.27;;;-1.90;99.90;;;;;;5003474;28;20076;-72
2021/01/15 02:55:26;;;;;;;21.87;10.10;;;-1.90;99.90;;;;;;5004937;28;20578;-70
2021/01/15 02:57:52;;;;;;;21.53;10.57;;;-1.90;99.90;;;;;;5004518;28;20072;-71
2021/01/15 03:00:21;;;;;;;24.07;10.97;;;-2.00;99.90;;;;;;5017977;28;20551;-70
2021/01/15 03:02:55;;;;;;;22.67;11.17;;;-2.00;99.90;;;;;;5003805;28;20050;-75
2021/01/15 03:05:24;;;;;;;25.67;10.90;;;-1.90;99.90;;;;;;5005102;28;20099;-70
2021/01/15 03:07:52;;;;;;;23.63;10.73;;;-1.90;99.90;;;;;;5005060;28;20054;-69
2021/01/15 03:10:24;;;;;;;23.37;10.63;;;-2.00;99.90;;;;;;5004109;28;20046;-70
2021/01/15 03:12:53;;;;;;;25.20;10.90;;;-2.00;99.90;;;;;;5003430;28;20057;-70
2021/01/15 03:15:20;;;;;;;28.37;10.40;;;-2.00;99.90;;;;;;5003956;28;20056;-70
2021/01/15 03:17:49;;;;;;;25.43;11.63;;;-2.00;99.90;;;;;;5008031;28;20053;-69
2021/01/15 03:20:16;;;;;;;25.67;11.63;;;-2.00;99.90;;;;;;5007773;28;20054;-69
2021/01/15 03:22:45;;;;;;;25.20;10.70;;;-2.00;99.90;;;;;;5006613;28;20108;-69
2021/01/15 03:25:13;;;;;;;27.80;11.20;;;-2.00;99.90;;;;;;5008036;28;20058;-70
2021/01/15 03:27:46;;;;;;;27.40;12.70;;;-1.90;99.90;;;;;;5004926;28;20054;-69
2021/01/15 03:30:15;;;;;;;24.17;10.90;;;-1.90;99.90;;;;;;5018311;28;20049;-74
2021/01/15 03:32:42;;;;;;;25.13;10.97;;;-2.00;99.90;;;;;;5026452;28;20075;-69
2021/01/15 03:35:22;;;;;;;27.10;12.07;;;-1.90;99.90;;;;;;5011295;28;20042;-70
2021/01/15 03:37:55;;;;;;;23.57;10.83;;;-2.00;99.90;;;;;;5007740;28;20053;-70
2021/01/15 03:40:22;;;;;;;23.43;10.50;;;-2.00;99.90;;;;;;5007883;28;20054;-72
2021/01/15 03:42:48;;;;;;;25.80;10.87;;;-2.00;99.90;;;;;;5006593;28;20046;-70
2021/01/15 03:45:15;;;;;;;29.37;11.17;;;-2.10;99.90;;;;;;5007387;28;20052;-70
2021/01/15 03:47:42;;;;;;;25.23;10.60;;;-2.10;99.90;;;;;;5007767;28;20042;-70
2021/01/15 03:50:10;;;;;;;25.70;11.50;;;-2.10;99.90;;;;;;5007139;28;20061;-70
2021/01/15 03:52:36;;;;;;;25.97;10.50;;;-2.10;99.90;;;;;;5005985;28;20053;-72
2021/01/15 03:55:05;;;;;;;25.27;11.00;;;-2.10;99.90;;;;;;5007361;28;20058;-72
2021/01/15 03:57:32;;;;;;;27.17;11.87;;;-2.10;99.90;;;;;;5012592;28;20077;-70
2021/01/15 03:59:58;;;;;;;26.17;11.70;;;-2.10;99.90;;;;;;5009968;28;20046;-70
2021/01/15 04:02:25;;;;;;;26.33;11.80;;;-2.00;99.90;;;;;;5005928;28;20053;-74
2021/01/15 04:04:52;;;;;;;28.20;12.23;;;-2.10;99.90;;;;;;5007247;28;20420;-72
2021/01/15 04:07:18;;;;;;;25.00;12.23;;;-2.10;99.90;;;;;;5006408;28;20104;-71
2021/01/15 04:09:45;;;;;;;28.30;12.00;;;-2.00;99.90;;;;;;4991194;28;20057;-70
2021/01/15 04:12:12;;;;;;;27.97;11.87;;;-2.00;99.90;;;;;;5006369;28;20550;-75
2021/01/15 04:14:40;;;;;;;29.70;11.93;;;-2.00;99.90;;;;;;5006747;28;20050;-70
2021/01/15 04:17:07;;;;;;;27.67;12.20;;;-2.00;99.90;;;;;;5007207;28;20492;-70
2021/01/15 04:19:33;;;;;;;24.83;11.37;;;-2.00;99.90;;;;;;5006262;28;20058;-73
2021/01/15 04:22:00;;;;;;;25.57;11.87;;;-2.00;99.90;;;;;;5006418;28;20046;-70
2021/01/15 04:24:26;;;;;;;24.80;11.87;;;-1.90;99.90;;;;;;5005194;28;20050;-70
2021/01/15 04:26:53;;;;;;;30.20;12.53;;;-1.90;99.90;;;;;;5006861;28;20050;-76
2021/01/15 04:29:20;;;;;;;31.00;12.20;;;-1.80;99.90;;;;;;5005679;28;20041;-71
2021/01/15 04:31:48;;;;;;;27.23;12.53;;;-1.80;99.90;;;;;;5006567;28;20054;-75
2021/01/15 04:34:15;;;;;;;24.97;10.97;;;-1.90;99.90;;;;;;5005954;28;20046;-70
2021/01/15 04:36:42;;;;;;;21.83;10.97;;;-1.80;99.90;;;;;;5006455;28;20057;-73
2021/01/15 04:39:09;;;;;;;25.67;12.03;;;-1.90;99.90;;;;;;5006837;28;20046;-70
2021/01/15 04:41:36;;;;;;;25.97;11.80;;;-1.70;99.90;;;;;;5006113;28;20200;-74
2021/01/15 04:44:04;;;;;;;30.13;11.17;;;-1.80;99.90;;;;;;5005324;28;20053;-70
2021/01/15 04:46:33;;;;;;;24.70;11.50;;;-1.80;99.90;;;;;;5006192;28;20056;-74
2021/01/15 04:49:03;;;;;;;25.23;11.37;;;-1.70;99.90;;;;;;5006886;28;20054;-69
2021/01/15 04:51:34;;;;;;;30.47;12.67;;;-1.70;99.90;;;;;;5006287;28;20420;-70
2021/01/15 04:54:02;;;;;;;28.97;12.70;;;-1.70;99.90;;;;;;5005195;28;20053;-70
2021/01/15 04:56:39;;;;;;;28.73;12.53;;;-1.70;99.90;;;;;;5006348;28;20060;-76
2021/01/15 04:59:08;;;;;;;32.05;12.30;;;-1.70;99.90;;;;;;5002815;28;20046;-74
2021/01/15 05:01:43;;;;;;;24.83;12.00;;;-1.60;99.90;;;;;;5006561;28;20057;-70
2021/01/15 05:04:11;;;;;;;26.30;11.17;;;-1.60;99.90;;;;;;5002508;28;20512;-70
2021/01/15 05:06:57;;;;;;;32.77;13.90;;;-1.50;99.90;;;;;;5006521;28;20046;-71
2021/01/15 05:09:25;;;;;;;32.57;13.33;;;-1.60;99.90;;;;;;5003190;28;20068;-70
2021/01/15 05:11:53;;;;;;;39.83;14.90;;;-1.60;99.90;;;;;;5005380;28;20054;-76
2021/01/15 05:14:21;;;;;;;50.07;16.07;;;-1.60;99.90;;;;;;5005301;28;20050;-70
2021/01/15 05:16:50;;;;;;;68.93;20.03;;;-1.60;99.90;;;;;;5006189;28;20046;-76
2021/01/15 05:19:17;;;;;;;70.73;22.97;;;-1.70;99.90;;;;;;5006194;28;20050;-70
2021/01/15 05:21:50;;;;;;;64.83;20.40;;;-1.70;99.90;;;;;;5005449;28;20065;-71
2021/01/15 05:24:17;;;;;;;56.03;17.10;;;-1.60;99.90;;;;;;5005362;28;20123;-70
2021/01/15 05:26:44;;;;;;;35.23;13.70;;;-1.60;99.90;;;;;;5006457;28;20085;-71
2021/01/15 05:29:10;;;;;;;35.57;14.20;;;-1.60;99.90;;;;;;5023278;28;20056;-70
2021/01/15 05:31:51;;;;;;;37.50;14.53;;;-1.50;99.90;;;;;;5025445;28;20054;-70
2021/01/15 05:34:19;;;;;;;26.83;10.87;;;-1.50;99.90;;;;;;5023793;28;20049;-73
2021/01/15 05:36:47;;;;;;;26.53;11.53;;;-1.40;99.90;;;;;;5025641;28;20068;-69
2021/01/15 05:39:16;;;;;;;22.87;10.70;;;-1.40;99.90;;;;;;5025054;28;20100;-70
2021/01/15 05:41:43;;;;;;;24.37;10.93;;;-1.30;99.90;;;;;;5026492;28;20049;-75
2021/01/15 05:44:10;;;;;;;25.63;10.97;;;-1.30;99.90;;;;;;5024611;28;20053;-70
2021/01/15 05:46:46;;;;;;;24.20;11.20;;;-1.40;99.90;;;;;;5025707;28;20087;-75
2021/01/15 05:49:14;;;;;;;28.95;11.15;;;-1.30;99.90;;;;;;5025187;28;20053;-75
2021/01/15 05:51:41;;;;;;;25.03;11.13;;;-1.40;99.90;;;;;;5025384;28;20049;-70
2021/01/15 05:54:09;;;;;;;25.03;10.93;;;-1.30;99.90;;;;;;5020916;28;20651;-75
2021/01/15 05:56:43;;;;;;;22.97;11.43;;;-1.30;99.90;;;;;;5020623;28;20045;-73
2021/01/15 05:59:11;;;;;;;20.53;10.03;;;-1.10;99.90;;;;;;5018739;28;20049;-76
2021/01/15 06:01:44;;;;;;;21.77;9.37;;;-1.10;99.90;;;;;;4981187;28;20057;-76
2021/01/15 06:04:13;;;;;;;25.27;10.83;;;-1.10;99.90;;;;;;4982832;28;20108;-70
2021/01/15 06:06:41;;;;;;;22.53;10.83;;;-1.10;99.90;;;;;;4985324;28;20054;-70
2021/01/15 06:09:08;;;;;;;23.50;10.57;;;-1.20;99.90;;;;;;4990268;28;20046;-71
2021/01/15 06:11:36;;;;;;;25.80;11.17;;;-1.20;99.90;;;;;;5004813;28;20046;-72
2021/01/15 06:14:03;;;;;;;23.00;10.83;;;-1.10;99.90;;;;;;5002751;28;20065;-75
2021/01/15 06:16:30;;;;;;;27.33;12.50;;;-1.20;99.90;;;;;;5004323;28;20072;-70
2021/01/15 06:19:01;;;;;;;27.43;12.13;;;-1.10;99.90;;;;;;5004237;28;20057;-70
2021/01/15 06:21:33;;;;;;;27.17;11.80;;;-1.10;99.90;;;;;;5005472;28;20060;-75
2021/01/15 06:24:05;;;;;;;24.87;11.13;;;-1.10;99.90;;;;;;5004678;28;20058;-75
2021/01/15 06:26:34;;;;;;;29.07;10.80;;;-1.00;99.90;;;;;;5005808;28;20500;-70
2021/01/15 06:29:09;;;;;;;25.80;10.83;;;-1.00;99.90;;;;;;5020272;28;20079;-70
2021/01/15 06:31:48;;;;;;;26.13;11.43;;;-1.00;99.90;;;;;;5005660;28;20046;-71
2021/01/15 06:34:16;;;;;;;25.90;10.37;;;-1.00;99.90;;;;;;5006507;28;20046;-71
2021/01/15 06:36:48;;;;;;;27.57;11.27;;;-1.00;99.90;;;;;;5008002;28;20049;-71
2021/01/15 06:39:16;;;;;;;28.27;11.30;;;-0.90;99.90;;;;;;5008690;28;20058;-70
2021/01/15 06:41:43;;;;;;;29.00;11.00;;;-0.90;99.90;;;;;;5005324;28;20085;-75
2021/01/15 06:44:11;;;;;;;25.57;11.10;;;-0.90;99.90;;;;;;5003692;28;20221;-70
2021/01/15 06:46:42;;;;;;;24.63;11.13;;;-0.90;99.90;;;;;;5007071;28;20088;-74
2021/01/15 06:49:16;;;;;;;27.13;11.93;;;-0.90;99.90;;;;;;4997398;28;20054;-70
2021/01/15 06:51:55;;;;;;;27.27;11.43;;;-0.90;99.90;;;;;;4999950;28;20049;-71
2021/01/15 06:54:34;;;;;;;25.40;11.10;;;-0.90;99.90;;;;;;5001898;28;20038;-71
2021/01/15 06:57:12;;;;;;;24.03;11.33;;;-0.80;99.90;;;;;;5002142;28;20090;-70
2021/01/15 06:59:39;;;;;;;26.80;11.97;;;-0.90;99.90;;;;;;5002668;28;20455;-74
2021/01/15 07:02:11;;;;;;;27.13;11.53;;;-0.90;99.90;;;;;;5004223;28;20062;-70
2021/01/15 07:05:02;;;;;;;28.07;12.10;;;-0.80;99.90;;;;;;5005809;28;20049;-72
2021/01/15 07:07:31;;;;;;;28.87;11.37;;;-0.90;99.90;;;;;;4998954;28;20054;-75
2021/01/15 07:10:00;;;;;;;28.87;11.70;;;-0.80;99.90;;;;;;5001790;28;20049;-72
2021/01/15 07:12:26;;;;;;;29.13;12.87;;;-0.80;99.90;;;;;;4998679;28;20104;-70
2021/01/15 07:14:57;;;;;;;27.53;12.47;;;-0.80;99.90;;;;;;5002548;28;20490;-74
2021/01/15 07:17:34;;;;;;;32.57;13.30;;;-0.80;99.90;;;;;;5003551;28;20060;-75
2021/01/15 07:20:08;;;;;;;36.57;12.57;;;-0.80;99.90;;;;;;5002765;28;20322;-70
2021/01/15 07:22:48;;;;;;;33.80;13.40;;;-0.80;99.90;;;;;;5004432;28;20463;-73
2021/01/15 07:25:15;;;;;;;33.43;13.73;;;-0.80;99.90;;;;;;5005100;28;20859;-76
2021/01/15 07:27:42;;;;;;;31.23;13.33;;;-0.80;99.90;;;;;;5004453;28;20058;-71
2021/01/15 07:30:14;;;;;;;33.00;12.47;;;-0.80;99.90;;;;;;5010270;28;20050;-73
2021/01/15 07:32:42;;;;;;;35.47;12.73;;;-0.70;99.90;;;;;;5012869;28;20046;-72
2021/01/15 07:35:15;;;;;;;37.93;14.20;;;-0.60;99.90;;;;;;5019052;28;20046;-74
2021/01/15 07:37:43;;;;;;;37.60;13.80;;;-0.70;99.90;;;;;;5019041;28;20045;-71
2021/01/15 07:40:14;;;;;;;40.67;13.83;;;-0.60;99.90;;;;;;5021183;28;20052;-73
2021/01/15 07:42:43;;;;;;;32.07;13.07;;;-0.70;99.90;;;;;;5024377;28;20440;-70
2021/01/15 07:45:50;;;;;;;24.57;11.17;;;-0.60;99.90;;;;;;5024146;28;20049;-72
2021/01/15 07:48:17;;;;;;;28.33;11.13;;;-0.60;99.90;;;;;;5016070;28;20046;-71
2021/01/15 07:50:44;;;;;;;24.53;11.17;;;-0.60;99.90;;;;;;5019523;28;20503;-72
2021/01/15 07:53:20;;;;;;;25.30;11.70;;;-0.60;99.90;;;;;;5018284;28;20088;-68
2021/01/15 07:55:48;;;;;;;22.20;11.23;;;-0.50;99.90;;;;;;5020247;28;20053;-69
2021/01/15 07:58:16;;;;;;;23.63;11.10;;;-0.50;99.90;;;;;;5022952;28;20049;-71
2021/01/15 08:00:43;;;;;;;22.17;9.43;;;-0.50;99.90;;;;;;5012892;28;20050;-74
2021/01/15 08:03:11;;;;;;;29.03;11.20;;;-0.40;99.90;;;;;;5007646;28;20049;-69
2021/01/15 08:05:38;;;;;;;25.10;11.10;;;-0.40;99.90;;;;;;5016113;28;20041;-72
2021/01/15 08:08:09;;;;;;;25.47;10.63;;;-0.30;99.90;;;;;;5016107;28;20057;-69
2021/01/15 08:10:51;;;;;;;27.43;10.17;;;-0.20;99.90;;;;;;5022978;28;20053;-69
2021/01/15 08:13:26;;;;;;;23.47;10.50;;;-0.10;99.90;;;;;;5026174;28;20057;-67
2021/01/15 08:16:04;;;;;;;21.37;10.17;;;-0.20;99.90;;;;;;5024252;28;20048;-71
2021/01/15 08:18:39;;;;;;;19.97;9.30;;;-0.20;99.90;;;;;;5014881;28;20078;-68
2021/01/15 08:21:06;;;;;;;25.80;11.07;;;-0.20;99.90;;;;;;5008210;28;20093;-68
2021/01/15 08:23:32;;;;;;;21.80;10.00;;;-0.20;99.90;;;;;;5009968;28;20416;-68
2021/01/15 08:26:28;;;;;;;20.00;9.23;;;-0.10;99.90;;;;;;5008740;28;20050;-67
2021/01/15 08:28:55;;;;;;;22.20;8.47;;;-0.10;99.90;;;;;;5017196;28;20443;-67
2021/01/15 08:31:22;;;;;;;21.97;10.00;;;-0.10;99.90;;;;;;5018704;28;20045;-67
2021/01/15 08:34:03;;;;;;;20.63;9.27;;;0.00;99.90;;;;;;5019390;28;20457;-68
2021/01/15 08:36:29;;;;;;;22.00;9.13;;;0.00;99.90;;;;;;5015734;28;20123;-67
2021/01/15 08:38:58;;;;;;;18.00;8.33;;;-0.10;99.90;;;;;;5002857;28;20042;-68
2021/01/15 08:41:28;;;;;;;19.30;8.03;;;0.10;99.90;;;;;;5004912;28;20072;-68
2021/01/15 08:43:55;;;;;;;17.47;7.60;;;0.10;99.90;;;;;;5014429;28;20100;-68
2021/01/15 08:46:23;;;;;;;19.63;8.60;;;0.10;99.90;;;;;;5011258;28;20054;-68
2021/01/15 08:48:51;;;;;;;19.43;8.93;;;0.20;99.90;;;;;;5010986;28;20058;-68
2021/01/15 08:51:20;;;;;;;19.27;8.80;;;0.10;99.90;;;;;;5010490;28;20503;-68
2021/01/15 08:54:04;;;;;;;20.63;9.57;;;0.20;99.90;;;;;;5016672;28;20053;-68
2021/01/15 08:56:34;;;;;;;20.80;9.67;;;0.20;99.90;;;;;;5021227;28;20548;-68
2021/01/15 08:59:00;;;;;;;19.77;8.93;;;0.20;99.90;;;;;;5019574;28;20042;-68
2021/01/15 09:01:28;;;;;;;20.87;9.53;;;0.20;99.90;;;;;;5031360;28;20826;-68
2021/01/15 09:04:02;;;;;;;19.53;8.93;;;0.30;99.90;;;;;;5037266;28;20140;-68
2021/01/15 09:06:29;;;;;;;22.73;9.20;;;0.40;99.90;;;;;;5029839;28;20041;-68
2021/01/15 09:09:00;;;;;;;26.80;10.00;;;0.50;99.90;;;;;;5040898;28;20041;-68
2021/01/15 09:11:31;;;;;;;22.87;10.20;;;0.40;99.90;;;;;;5026310;28;20121;-69
2021/01/15 09:13:59;;;;;;;22.17;9.53;;;0.60;99.90;;;;;;5012210;28;20440;-68
2021/01/15 09:16:27;;;;;;;26.47;10.07;;;0.60;99.90;;;;;;5008644;28;20060;-68
2021/01/15 09:18:56;;;;;;;34.03;11.27;;;0.70;99.90;;;;;;5012020;28;20507;-68
2021/01/15 09:21:23;;;;;;;32.33;11.20;;;0.80;99.90;;;;;;5027743;28;20209;-68
2021/01/15 09:23:50;;;;;;;22.30;8.80;;;0.70;99.90;;;;;;5025655;28;20049;-68
2021/01/15 09:26:18;;;;;;;18.77;8.40;;;0.70;99.90;;;;;;5039065;28;20049;-68
2021/01/15 09:28:45;;;;;;;17.57;7.97;;;0.90;99.90;;;;;;5021576;28;20050;-68
2021/01/15 09:31:13;;;;;;;19.90;9.23;;;1.00;99.90;;;;;;5029349;28;20095;-68
2021/01/15 09:33:47;;;;;;;22.07;9.50;;;0.90;99.90;;;;;;5023376;28;20053;-68
2021/01/15 09:36:21;;;;;;;17.63;8.37;;;0.90;99.90;;;;;;5018354;28;20045;-69
2021/01/15 09:38:48;;;;;;;19.83;9.40;;;0.80;99.90;;;;;;5017881;28;20053;-68
2021/01/15 09:41:15;;;;;;;19.00;9.27;;;0.90;99.90;;;;;;5017680;28;20058;-69
2021/01/15 09:43:42;;;;;;;19.43;9.27;;;1.00;99.90;;;;;;5010310;28;20408;-69
2021/01/15 09:46:11;;;;;;;19.17;8.97;;;0.90;99.90;;;;;;5012068;28;20108;-68
2021/01/15 09:48:39;;;;;;;20.43;8.33;;;1.00;99.90;;;;;;5017611;28;20143;-69
2021/01/15 09:51:05;;;;;;;18.43;8.77;;;1.10;99.90;;;;;;5017043;28;20046;-69
2021/01/15 09:53:32;;;;;;;19.03;8.23;;;1.20;99.90;;;;;;5008325;28;20050;-69
2021/01/15 09:55:58;;;;;;;22.10;8.10;;;1.20;99.90;;;;;;5008167;28;20053;-69
2021/01/15 09:58:27;;;;;;;16.07;7.13;;;1.30;99.90;;;;;;5019555;28;20478;-70
2021/01/15 10:00:54;;;;;;;19.33;8.30;;;1.40;99.90;;;;;;5013534;28;20050;-70
2021/01/15 10:03:20;;;;;;;17.50;8.17;;;1.50;99.90;;;;;;5007648;28;20056;-70
2021/01/15 10:05:48;;;;;;;21.20;8.70;;;1.40;99.90;;;;;;5008511;28;20440;-70
2021/01/15 10:08:14;;;;;;;18.57;7.97;;;1.40;99.90;;;;;;5009236;28;20054;-70
2021/01/15 10:10:41;;;;;;;18.80;8.33;;;1.40;99.90;;;;;;5006874;28;20432;-71
2021/01/15 10:13:08;;;;;;;15.90;7.60;;;1.50;99.90;;;;;;5006211;28;20692;-70
2021/01/15 10:15:36;;;;;;;17.87;8.13;;;1.40;99.90;;;;;;5004781;28;20050;-70
2021/01/15 10:18:05;;;;;;;18.63;8.43;;;1.60;99.90;;;;;;4997516;28;20058;-75
2021/01/15 10:20:33;;;;;;;19.33;8.47;;;1.60;99.90;;;;;;5005429;28;20088;-72
2021/01/15 10:23:01;;;;;;;19.93;8.37;;;1.60;99.90;;;;;;5006986;28;20053;-72
2021/01/15 10:25:27;;;;;;;18.13;8.07;;;1.60;99.90;;;;;;5005072;28;20073;-75
2021/01/15 10:27:54;;;;;;;13.70;8.00;;;1.60;99.90;;;;;;5006988;28;20045;-72
2021/01/15 10:30:22;;;;;;;16.97;7.70;;;1.70;99.90;;;;;;5004306;28;20497;-73
2021/01/15 10:32:48;;;;;;;18.17;7.40;;;1.70;99.90;;;;;;5010435;28;20050;-73
2021/01/15 10:35:15;;;;;;;16.60;7.57;;;1.90;99.90;;;;;;5015205;28;20058;-72
2021/01/15 10:37:42;;;;;;;17.07;8.23;;;1.90;99.90;;;;;;5015806;28;20451;-72
2021/01/15 10:40:11;;;;;;;18.33;7.87;;;2.00;99.90;;;;;;5011890;28;20072;-75
2021/01/15 10:42:39;;;;;;;16.43;7.80;;;2.00;99.90;;;;;;5006392;28;20046;-70
2021/01/15 10:45:07;;;;;;;18.20;8.47;;;2.10;99.90;;;;;;5015050;28;20046;-70
2021/01/15 10:47:34;;;;;;;14.97;7.57;;;2.10;99.90;;;;;;5011150;28;20050;-71
2021/01/15 10:50:00;;;;;;;17.53;7.33;;;2.10;99.90;;;;;;5016259;28;20080;-71
2021/01/15 10:52:27;;;;;;;21.87;7.27;;;2.30;99.90;;;;;;5011536;28;20049;-71
2021/01/15 10:54:54;;;;;;;15.53;7.10;;;2.30;99.90;;;;;;5010543;28;20092;-70
2021/01/15 10:57:21;;;;;;;;;;;2.10;99.90;;;;;;5006033;28;20085;-71
2021/01/15 10:59:48;;;;;;;16.77;7.68;;;2.20;99.90;;;;;;5010967;28;19921;-72
2021/01/15 11:02:15;;;;;;;13.57;7.07;;;2.40;99.90;;;;;;5014185;28;20128;-69
2021/01/15 11:04:42;;;;;;;18.40;7.63;;;2.50;99.90;;;;;;5030574;28;20492;-73
2021/01/15 11:07:09;;;;;;;14.67;7.57;;;2.40;99.90;;;;;;5025914;28;20049;-69
2021/01/15 11:09:38;;;;;;;14.17;7.73;;;2.50;99.90;;;;;;5016087;28;20056;-69
2021/01/15 11:12:05;;;;;;;15.23;7.60;;;2.50;99.90;;;;;;5030426;28;20057;-69
2021/01/15 11:14:33;;;;;;;16.43;7.87;;;2.50;99.90;;;;;;5015562;28;20053;-69
2021/01/15 11:16:59;;;;;;;14.00;6.97;;;2.60;99.90;;;;;;4991931;28;20097;-68
2021/01/15 11:19:26;;;;;;;14.03;6.93;;;2.60;99.90;;;;;;5004099;28;20133;-69
2021/01/15 11:21:52;;;;;;;17.43;7.53;;;2.70;99.90;;;;;;5009901;28;20046;-70
2021/01/15 11:24:19;;;;;;;18.27;7.53;;;2.80;99.90;;;;;;5008943;28;20046;-69
2021/01/15 11:26:46;;;;;;;14.23;6.03;;;2.80;99.90;;;;;;5008745;28;20388;-69
2021/01/15 11:29:13;;;;;;;16.07;7.40;;;2.80;99.90;;;;;;5005374;28;20051;-68
2021/01/15 11:31:40;;;;;;;15.00;6.83;;;2.90;99.90;;;;;;5009953;28;20054;-69
2021/01/15 11:34:07;;;;;;;16.93;7.13;;;3.00;99.90;;;;;;5008931;28;20577;-69
2021/01/15 11:36:34;;;;;;;17.37;7.20;;;2.90;99.90;;;;;;5009779;28;20038;-69
2021/01/15 11:39:02;;;;;;;15.93;6.90;;;2.90;99.90;;;;;;5009881;28;20119;-69
2021/01/15 11:41:29;;;;;;;17.00;7.73;;;3.00;99.90;;;;;;5010345;28;20046;-68
2021/01/15 11:43:55;;;;;;;15.03;7.37;;;3.00;99.90;;;;;;5008954;28;20053;-68
2021/01/15 11:46:22;;;;;;;14.93;6.93;;;3.10;99.90;;;;;;5011039;28;20042;-69
2021/01/15 11:48:49;;;;;;;16.00;7.57;;;3.10;99.90;;;;;;5009513;28;20050;-69
2021/01/15 11:51:16;;;;;;;15.53;7.43;;;3.00;99.90;;;;;;5008632;28;20145;-69
2021/01/15 11:53:48;;;;;;;19.23;8.40;;;3.10;99.90;;;;;;5007785;28;20073;-69
2021/01/15 11:56:23;;;;;;;17.73;7.43;;;3.00;99.90;;;;;;5006538;28;20050;-69
2021/01/15 11:58:50;;;;;;;14.93;7.03;;;3.00;99.90;;;;;;5002878;28;20045;-69
2021/01/15 12:01:17;;;;;;;15.33;7.60;;;3.00;99.90;;;;;;5029792;28;20053;-69
2021/01/15 12:03:44;;;;;;;18.27;8.20;;;3.00;99.90;;;;;;5028776;28;20049;-69
2021/01/15 12:06:13;;;;;;;15.53;7.60;;;2.90;99.90;;;;;;5029350;28;20057;-69
2021/01/15 12:08:40;;;;;;;15.87;7.33;;;2.90;99.90;;;;;;5029428;28;20057;-69
2021/01/15 12:11:07;;;;;;;16.23;7.63;;;3.00;99.90;;;;;;5029101;28;20076;-69
2021/01/15 12:13:34;;;;;;;17.03;8.00;;;3.00;99.90;;;;;;5029351;28;20111;-69
2021/01/15 12:16:01;;;;;;;16.77;8.20;;;3.10;99.90;;;;;;5029212;28;20492;-69
2021/01/15 12:18:28;;;;;;;15.33;7.57;;;3.00;99.90;;;;;;5028903;28;20064;-69
2021/01/15 12:20:55;;;;;;;17.80;8.23;;;3.10;99.90;;;;;;5029081;28;20050;-69
2021/01/15 12:23:23;;;;;;;16.73;8.10;;;3.10;99.90;;;;;;5028097;28;20057;-69
2021/01/15 12:25:49;;;;;;;16.40;7.50;;;3.30;99.90;;;;;;5026164;28;20115;-69
2021/01/15 12:28:17;;;;;;;13.20;7.00;;;3.30;99.90;;;;;;5005364;28;20050;-68
2021/01/15 12:30:44;;;;;;;16.20;7.57;;;3.20;99.90;;;;;;5010582;28;20451;-69
2021/01/15 12:33:13;;;;;;;19.33;8.13;;;3.30;99.90;;;;;;5007785;28;20053;-69
2021/01/15 12:35:41;;;;;;;17.50;7.53;;;3.20;99.90;;;;;;5009757;28;20049;-69
2021/01/15 12:38:08;;;;;;;14.50;7.43;;;3.40;99.90;;;;;;5008899;28;20455;-69
2021/01/15 12:40:37;;;;;;;20.50;7.53;;;3.30;99.90;;;;;;5008435;28;20096;-69
2021/01/15 12:43:04;;;;;;;16.30;7.63;;;3.40;99.90;;;;;;5007749;28;20148;-69
2021/01/15 12:45:33;;;;;;;15.77;7.50;;;3.40;99.90;;;;;;5003184;28;20050;-69
2021/01/15 12:47:59;;;;;;;16.00;8.07;;;3.30;99.90;;;;;;5004991;28;20053;-69
2021/01/15 12:50:26;;;;;;;15.77;7.30;;;3.40;99.90;;;;;;5009141;28;20382;-75